createdAt,value
2022-10-19T00:01:17.356Z,19.09
2022-10-19T00:06:19.716Z,19.07
2022-10-19T00:08:48.196Z,18.80
2022-10-19T00:11:18.308Z,19.20
2022-10-19T00:13:46.781Z,18.83
2022-10-19T00:16:17.140Z,19.25
2022-10-19T00:18:45.696Z,19.03
2022-10-19T00:21:17.461Z,19.46
2022-10-19T00:23:46.907Z,19.23
2022-10-19T00:26:15.356Z,19.11
2022-10-19T00:28:45.536Z,19.40
2022-10-19T00:31:15.461Z,19.26
2022-10-19T00:33:44.480Z,19.05
2022-10-19T00:36:17.225Z,19.43
2022-10-19T00:38:46.033Z,19.06
2022-10-19T00:41:14.780Z,19.30
2022-10-19T00:43:56.225Z,19.81
2022-10-19T00:46:24.762Z,19.24
2022-10-19T00:48:55.796Z,19.58
2022-10-19T00:51:24.339Z,19.10
2022-10-19T00:53:55.542Z,19.08
2022-10-19T00:56:23.866Z,18.99
2022-10-19T00:58:52.212Z,18.81
2022-10-19T01:01:23.685Z,19.27
2022-10-19T01:03:52.282Z,18.82
2022-10-19T01:06:22.091Z,18.89
2022-10-19T01:08:50.440Z,18.42
2022-10-19T01:11:30.867Z,19.27
2022-10-19T01:14:09.241Z,19.28
2022-10-19T01:16:48.003Z,19.36
2022-10-19T01:19:34.406Z,19.23
2022-10-19T01:22:12.302Z,19.25
2022-10-19T01:27:31.266Z,19.12
2022-10-19T01:30:04.832Z,19.21
2022-10-19T01:32:40.027Z,19.18
2022-10-19T01:35:12.463Z,19.18
2022-10-19T01:37:45.918Z,19.14
2022-10-19T01:40:18.880Z,19.04
2022-10-19T01:42:50.434Z,18.84
2022-10-19T01:45:22.753Z,19.03
2022-10-19T01:47:55.591Z,18.89
2022-10-19T01:50:28.258Z,18.85
2022-10-19T01:52:57.155Z,18.58
2022-10-19T01:55:26.629Z,18.74
2022-10-19T01:57:58.570Z,18.80
2022-10-19T02:00:28.969Z,18.75
2022-10-19T02:02:57.673Z,18.33
2022-10-19T02:05:30.509Z,18.67
2022-10-19T02:08:00.778Z,18.50
2022-10-19T02:10:29.966Z,18.41
2022-10-19T02:12:59.773Z,18.50
2022-10-19T02:15:30.949Z,18.60
2022-10-19T02:18:00.430Z,18.41
2022-10-19T02:20:37.473Z,18.52
2022-10-19T02:23:06.466Z,18.42
2022-10-19T02:25:35.595Z,18.27
2022-10-19T02:28:05.067Z,18.47
2022-10-19T02:30:35.228Z,18.52
2022-10-19T02:33:03.345Z,18.18
2022-10-19T02:35:32.244Z,18.20
2022-10-19T02:38:02.322Z,18.54
2022-10-19T02:40:31.334Z,18.37
2022-10-19T02:43:02.977Z,18.44
2022-10-19T02:45:35.291Z,18.43
2022-10-19T02:48:05.575Z,18.32
2022-10-19T02:50:34.163Z,18.06
2022-10-19T02:53:02.624Z,18.15
2022-10-19T02:55:31.569Z,18.23
2022-10-19T02:57:59.917Z,18.21
2022-10-19T03:00:28.285Z,18.20
2022-10-19T03:02:58.000Z,18.68
2022-10-19T03:05:26.480Z,18.33
2022-10-19T03:07:54.960Z,18.44
2022-10-19T03:10:23.452Z,18.21
2022-10-19T03:12:51.665Z,18.21
2022-10-19T03:15:20.445Z,18.22
2022-10-19T03:17:48.635Z,18.15
2022-10-19T03:20:18.682Z,18.62
2022-10-19T03:22:46.940Z,18.32
2022-10-19T03:25:15.350Z,18.22
2022-10-19T03:27:43.607Z,18.21
2022-10-19T03:30:12.584Z,18.40
2022-10-19T03:32:40.811Z,18.22
2022-10-19T03:35:09.466Z,18.33
2022-10-19T03:37:39.071Z,18.55
2022-10-19T03:40:08.225Z,18.12
2022-10-19T03:42:36.398Z,17.90
2022-10-19T03:45:05.674Z,18.03
2022-10-19T03:47:34.032Z,17.85
2022-10-19T03:50:02.541Z,17.76
2022-10-19T03:52:30.753Z,17.72
2022-10-19T03:55:00.636Z,18.00
2022-10-19T03:57:28.903Z,17.60
2022-10-19T03:59:57.275Z,17.34
2022-10-19T04:02:25.657Z,17.24
2022-10-19T04:04:54.153Z,17.16
2022-10-19T04:07:22.393Z,17.13
2022-10-19T04:09:50.763Z,17.13
2022-10-19T04:12:20.290Z,17.42
2022-10-19T04:14:58.138Z,16.96
2022-10-19T04:17:26.813Z,17.10
2022-10-19T04:19:55.224Z,16.85
2022-10-19T04:22:23.359Z,16.90
2022-10-19T04:24:51.713Z,16.86
2022-10-19T04:27:21.246Z,17.14
2022-10-19T04:29:49.643Z,16.77
2022-10-19T04:32:17.800Z,16.79
2022-10-19T04:34:46.207Z,16.79
2022-10-19T04:37:14.379Z,16.86
2022-10-19T04:39:43.891Z,16.86
2022-10-19T04:42:12.125Z,16.81
2022-10-19T04:44:41.814Z,17.17
2022-10-19T04:47:09.945Z,16.80
2022-10-19T04:49:38.401Z,16.48
2022-10-19T04:52:06.871Z,16.55
2022-10-19T04:54:35.321Z,16.38
2022-10-19T04:57:03.396Z,16.27
2022-10-19T04:59:31.634Z,16.25
2022-10-19T05:02:01.217Z,16.48
2022-10-19T05:04:29.524Z,16.04
2022-10-19T05:06:57.802Z,16.01
2022-10-19T05:09:26.493Z,15.90
2022-10-19T05:11:54.657Z,15.77
2022-10-19T05:14:23.229Z,15.67
2022-10-19T05:16:51.469Z,15.74
2022-10-19T05:19:21.382Z,15.98
2022-10-19T05:21:50.202Z,15.73
2022-10-19T05:24:19.027Z,16.08
2022-10-19T05:26:47.333Z,16.14
2022-10-19T05:29:15.755Z,16.18
2022-10-19T05:31:44.019Z,16.24
2022-10-19T05:34:15.153Z,16.34
2022-10-19T05:36:45.227Z,16.78
2022-10-19T05:39:15.746Z,16.78
2022-10-19T05:41:44.621Z,16.78
2022-10-19T05:44:15.767Z,17.21
2022-10-19T05:46:45.557Z,17.53
2022-10-19T05:49:15.581Z,17.74
2022-10-19T05:51:45.350Z,18.16
2022-10-19T05:54:15.087Z,18.19
2022-10-19T05:56:43.755Z,18.08
2022-10-19T05:59:15.816Z,18.51
2022-10-19T06:01:44.035Z,18.03
2022-10-19T06:04:14.294Z,18.04
2022-10-19T06:06:43.562Z,18.38
2022-10-19T06:09:13.526Z,18.41
2022-10-19T06:11:42.831Z,18.27
2022-10-19T06:14:14.527Z,18.49
2022-10-19T06:16:42.961Z,18.04
2022-10-19T06:19:11.284Z,17.91
2022-10-19T06:21:41.956Z,18.05
2022-10-19T06:24:14.737Z,18.26
2022-10-19T06:26:42.886Z,17.87
2022-10-19T06:29:11.217Z,17.94
2022-10-19T06:31:39.588Z,18.05
2022-10-19T06:34:08.170Z,17.91
2022-10-19T06:36:36.872Z,17.97
2022-10-19T06:39:05.744Z,17.90
2022-10-19T06:41:35.440Z,18.40
2022-10-19T06:44:03.962Z,17.89
2022-10-19T06:46:32.653Z,18.00
2022-10-19T06:49:02.669Z,18.33
2022-10-19T06:51:34.049Z,18.48
2022-10-19T06:54:02.490Z,18.07
2022-10-19T06:56:30.645Z,18.19
2022-10-19T06:59:00.456Z,18.57
2022-10-19T07:01:28.827Z,18.28
2022-10-19T07:03:57.320Z,17.95
2022-10-19T07:06:27.648Z,18.22
2022-10-19T07:08:55.980Z,17.98
2022-10-19T07:11:24.157Z,17.98
2022-10-19T07:13:53.985Z,18.38
2022-10-19T07:16:23.552Z,18.32
2022-10-19T07:18:53.253Z,18.23
2022-10-19T07:21:22.459Z,18.15
2022-10-19T07:23:51.326Z,17.85
2022-10-19T07:26:23.567Z,18.15
2022-10-19T07:28:52.333Z,18.21
2022-10-19T07:31:24.531Z,18.79
2022-10-19T07:33:54.592Z,19.39
2022-10-19T07:36:23.426Z,20.89
2022-10-19T07:38:52.040Z,21.69
2022-10-19T07:41:22.362Z,21.70
2022-10-19T07:43:51.275Z,21.25
2022-10-19T07:46:20.747Z,20.97
2022-10-19T07:48:50.481Z,21.15
2022-10-19T07:51:19.516Z,22.01
2022-10-19T07:53:48.265Z,22.99
2022-10-19T07:56:18.140Z,23.31
2022-10-19T07:58:47.071Z,22.12
2022-10-19T08:01:16.864Z,21.24
2022-10-19T08:06:36.651Z,19.92
2022-10-19T08:09:05.460Z,19.01
2022-10-19T08:11:35.668Z,19.01
2022-10-19T08:14:04.689Z,18.29
2022-10-19T08:16:36.693Z,18.31
2022-10-19T08:19:07.191Z,18.30
2022-10-19T08:21:37.700Z,18.47
2022-10-19T08:24:06.846Z,18.15
2022-10-19T08:26:36.701Z,18.64
2022-10-19T08:29:06.598Z,19.04
2022-10-19T08:31:34.989Z,19.52
2022-10-19T08:34:03.395Z,20.71
2022-10-19T08:36:32.781Z,21.54
2022-10-19T08:39:03.205Z,22.24
2022-10-19T08:41:34.794Z,21.87
2022-10-19T08:44:20.359Z,21.39
2022-10-19T08:46:53.752Z,20.56
2022-10-19T08:49:25.488Z,19.97
2022-10-19T08:51:56.066Z,20.02
2022-10-19T08:54:28.641Z,19.17
2022-10-19T08:57:06.067Z,18.82
2022-10-19T08:59:40.441Z,18.56
2022-10-19T09:02:15.511Z,18.50
2022-10-19T09:04:47.017Z,18.35
2022-10-19T09:07:26.082Z,18.45
2022-10-19T09:09:58.808Z,18.06
2022-10-19T09:12:34.985Z,18.16
2022-10-19T09:15:06.006Z,18.23
2022-10-19T09:17:34.308Z,18.44
2022-10-19T09:20:15.729Z,19.48
2022-10-19T09:22:44.896Z,19.78
2022-10-19T09:25:19.953Z,20.63
2022-10-19T09:27:50.242Z,21.05
2022-10-19T09:30:21.199Z,21.58
2022-10-19T09:32:50.469Z,22.11
2022-10-19T09:35:24.247Z,22.68
2022-10-19T09:37:52.966Z,21.98
2022-10-19T09:40:25.951Z,21.49
2022-10-19T09:42:58.527Z,20.75
2022-10-19T09:45:35.314Z,20.91
2022-10-19T09:48:12.194Z,20.41
2022-10-19T09:50:44.985Z,20.17
2022-10-19T09:53:19.183Z,20.20
2022-10-19T09:55:58.511Z,19.82
2022-10-19T09:58:32.075Z,19.55
2022-10-19T10:01:03.110Z,18.99
2022-10-19T10:03:33.275Z,19.01
2022-10-19T10:06:04.586Z,19.17
2022-10-19T10:08:34.932Z,19.13
2022-10-19T10:11:10.251Z,19.37
2022-10-19T10:13:40.183Z,19.05
2022-10-19T10:16:10.458Z,18.95
2022-10-19T10:18:45.676Z,18.91
2022-10-19T10:21:17.072Z,18.80
2022-10-19T10:24:00.548Z,19.22
2022-10-19T10:26:30.398Z,18.84
2022-10-19T10:29:01.354Z,18.25
2022-10-19T10:31:31.180Z,18.50
2022-10-19T10:34:10.922Z,18.38
2022-10-19T10:36:52.579Z,18.27
2022-10-19T10:39:20.789Z,17.89
2022-10-19T10:41:50.540Z,18.23
2022-10-19T10:44:20.962Z,18.21
2022-10-19T10:46:53.278Z,18.43
2022-10-19T10:49:26.193Z,18.55
2022-10-19T10:51:56.547Z,18.49
2022-10-19T10:54:26.841Z,18.58
2022-10-19T10:57:13.160Z,19.09
2022-10-19T10:59:48.342Z,18.77
2022-10-19T11:02:29.625Z,18.72
2022-10-19T11:05:01.209Z,18.27
2022-10-19T11:07:30.145Z,18.07
2022-10-19T11:10:00.436Z,18.24
2022-10-19T11:12:35.765Z,18.45
2022-10-19T11:15:12.443Z,18.19
2022-10-19T11:17:54.866Z,18.09
2022-10-19T11:20:24.282Z,18.12
2022-10-19T11:22:59.486Z,18.42
2022-10-19T11:25:37.515Z,18.39
2022-10-19T11:28:16.669Z,18.41
2022-10-19T11:30:55.597Z,18.48
2022-10-19T11:33:36.205Z,18.66
2022-10-19T11:36:12.909Z,18.87
2022-10-19T11:38:51.804Z,19.20
2022-10-19T11:41:28.508Z,19.50
2022-10-19T11:44:10.574Z,19.70
2022-10-19T11:46:42.831Z,19.47
2022-10-19T11:49:22.820Z,19.68
2022-10-19T11:51:57.544Z,19.51
2022-10-19T11:54:35.510Z,19.58
2022-10-19T11:57:11.354Z,19.42
2022-10-19T11:59:52.567Z,19.38
2022-10-19T12:02:39.267Z,19.31
2022-10-19T12:05:11.468Z,19.15
2022-10-19T12:07:56.663Z,19.17
2022-10-19T12:10:30.454Z,18.93
2022-10-19T12:13:02.357Z,18.70
2022-10-19T12:15:35.320Z,18.86
2022-10-19T12:18:10.198Z,19.05
2022-10-19T12:20:41.305Z,19.05
2022-10-19T12:23:23.126Z,19.33
2022-10-19T12:25:52.406Z,18.90
2022-10-19T12:28:23.729Z,19.23
2022-10-19T12:30:53.271Z,19.91
2022-10-19T12:33:24.934Z,19.35
2022-10-19T12:36:02.190Z,19.39
2022-10-19T12:38:42.281Z,19.18
2022-10-19T12:41:21.462Z,19.18
2022-10-19T12:44:01.899Z,18.99
2022-10-19T12:46:37.324Z,18.94
2022-10-19T12:49:38.564Z,19.16
2022-10-19T12:52:08.330Z,18.32
2022-10-19T12:54:39.482Z,18.70
2022-10-19T12:57:22.850Z,19.30
2022-10-19T13:00:00.637Z,18.73
2022-10-19T13:05:01.501Z,17.99
2022-10-19T13:07:37.286Z,18.66
2022-10-19T13:10:07.389Z,18.47
2022-10-19T13:12:44.827Z,18.87
2022-10-19T13:15:49.521Z,19.18
2022-10-19T13:19:02.729Z,19.19
2022-10-19T13:21:54.087Z,19.38
2022-10-19T13:24:34.701Z,19.22
2022-10-19T13:27:27.363Z,19.40
2022-10-19T13:29:55.781Z,18.61
2022-10-19T13:32:48.035Z,19.43
2022-10-19T13:35:31.628Z,19.22
2022-10-19T13:38:24.320Z,19.17
2022-10-19T13:41:08.041Z,19.17
2022-10-19T13:43:40.327Z,19.04
2022-10-19T13:46:14.933Z,19.09
2022-10-19T13:49:04.858Z,18.95
2022-10-19T13:51:38.779Z,18.89
2022-10-19T13:54:17.782Z,18.85
2022-10-19T13:56:57.350Z,18.67
2022-10-19T13:59:57.562Z,18.91
2022-10-19T14:02:55.176Z,18.67
2022-10-19T14:08:22.733Z,18.27
2022-10-19T14:11:01.098Z,18.07
2022-10-19T14:13:30.545Z,17.64
2022-10-19T14:16:00.658Z,17.55
2022-10-19T14:18:31.271Z,17.69
2022-10-19T14:21:00.833Z,17.65
2022-10-19T14:23:31.848Z,17.39
2022-10-19T14:26:01.383Z,16.84
2022-10-19T14:28:29.897Z,16.84
2022-10-19T14:30:59.983Z,17.10
2022-10-19T14:33:28.763Z,16.66
2022-10-19T14:35:57.423Z,16.83
2022-10-19T14:38:32.862Z,17.29
2022-10-19T14:41:01.169Z,16.72
2022-10-19T14:43:30.936Z,16.88
2022-10-19T14:46:14.604Z,17.35
2022-10-19T14:48:45.564Z,17.25
2022-10-19T14:51:28.057Z,17.90
2022-10-19T14:54:00.637Z,17.97
2022-10-19T14:56:34.854Z,18.37
2022-10-19T14:59:06.205Z,18.44
2022-10-19T15:01:35.026Z,18.40
2022-10-19T15:04:03.788Z,18.43
2022-10-19T15:06:35.727Z,18.69
2022-10-19T15:09:12.101Z,18.74
2022-10-19T15:11:49.858Z,18.30
2022-10-19T15:14:22.037Z,18.37
2022-10-19T15:16:53.362Z,18.11
2022-10-19T15:19:27.786Z,18.00
2022-10-19T15:22:13.180Z,17.86
2022-10-19T15:24:57.160Z,17.73
2022-10-19T15:27:31.259Z,17.28
2022-10-19T15:30:05.660Z,17.06
2022-10-19T15:32:36.606Z,16.78
2022-10-19T15:35:12.996Z,16.96
2022-10-19T15:37:43.656Z,16.73
2022-10-19T15:40:18.431Z,16.70
2022-10-19T15:42:48.800Z,16.16
2022-10-19T15:45:35.598Z,16.93
2022-10-19T15:48:20.299Z,16.88
2022-10-19T15:50:49.622Z,16.35
2022-10-19T15:53:18.012Z,16.13
2022-10-19T15:55:48.057Z,16.10
2022-10-19T15:58:16.483Z,15.49
2022-10-19T16:00:45.468Z,15.47
2022-10-19T16:03:14.079Z,15.00
2022-10-19T16:05:42.380Z,15.04
2022-10-19T16:08:12.477Z,15.24
2022-10-19T16:10:40.979Z,15.10
2022-10-19T16:13:10.445Z,15.45
2022-10-19T16:15:38.766Z,15.27
2022-10-19T16:18:06.872Z,15.32
2022-10-19T16:20:35.259Z,15.32
2022-10-19T16:23:03.656Z,15.39
2022-10-19T16:25:31.995Z,15.32
2022-10-19T16:28:03.148Z,15.36
2022-10-19T16:30:32.859Z,15.80
2022-10-19T16:33:01.098Z,15.39
2022-10-19T16:35:29.330Z,15.37
2022-10-19T16:37:59.170Z,15.45
2022-10-19T16:40:27.517Z,15.55
2022-10-19T16:42:58.853Z,15.63
2022-10-19T16:45:27.299Z,15.67
2022-10-19T16:47:56.856Z,16.06
2022-10-19T16:50:25.318Z,15.85
2022-10-19T16:53:04.935Z,16.53
2022-10-19T16:55:33.901Z,15.99
2022-10-19T16:58:01.984Z,15.83
2022-10-19T17:00:30.485Z,15.79
2022-10-19T17:03:00.113Z,16.19
2022-10-19T17:05:28.493Z,15.85
2022-10-19T17:07:56.627Z,15.81
2022-10-19T17:10:25.176Z,15.84
2022-10-19T17:12:53.420Z,15.76
2022-10-19T17:15:42.065Z,15.93
2022-10-19T17:18:11.457Z,16.34
2022-10-19T17:20:39.957Z,15.97
2022-10-19T17:23:08.072Z,15.94
2022-10-19T17:25:36.454Z,15.96
2022-10-19T17:28:04.645Z,15.83
2022-10-19T17:30:32.978Z,15.75
2022-10-19T17:33:01.027Z,15.65
2022-10-19T17:35:30.769Z,16.00
2022-10-19T17:37:59.064Z,15.62
2022-10-19T17:40:27.540Z,15.65
2022-10-19T17:42:55.686Z,15.53
2022-10-19T17:45:24.103Z,15.62
2022-10-19T17:47:52.191Z,15.59
2022-10-19T17:50:20.575Z,15.72
2022-10-19T17:52:50.076Z,16.11
2022-10-19T17:55:18.652Z,15.60
2022-10-19T17:57:46.921Z,15.57
2022-10-19T18:00:16.239Z,15.80
2022-10-19T18:02:45.910Z,15.91
2022-10-19T18:05:14.417Z,15.69
2022-10-19T18:07:44.782Z,15.93
2022-10-19T18:10:15.520Z,15.93
2022-10-19T18:12:43.592Z,15.53
2022-10-19T18:15:11.920Z,15.54
2022-10-19T18:17:40.325Z,15.50
2022-10-19T18:20:09.954Z,15.82
2022-10-19T18:22:38.413Z,15.57
2022-10-19T18:25:07.502Z,15.56
2022-10-19T18:27:37.590Z,15.75
2022-10-19T18:30:06.814Z,15.50
2022-10-19T18:32:36.205Z,15.29
2022-10-19T18:35:05.190Z,15.31
2022-10-19T18:37:33.302Z,15.26
2022-10-19T18:40:01.721Z,15.25
2022-10-19T18:42:30.633Z,15.09
2022-10-19T18:45:00.670Z,15.46
2022-10-19T18:47:28.793Z,14.99
2022-10-19T18:49:57.417Z,15.03
2022-10-19T18:52:25.587Z,15.06
2022-10-19T18:54:53.961Z,15.00
2022-10-19T18:57:22.194Z,14.91
2022-10-19T18:59:50.698Z,14.94
2022-10-19T19:02:22.700Z,15.23
2022-10-19T19:04:56.634Z,14.97
2022-10-19T19:07:24.870Z,14.93
2022-10-19T19:09:53.211Z,14.93
2022-10-19T19:12:22.615Z,15.32
2022-10-19T19:14:50.982Z,15.03
2022-10-19T19:17:20.452Z,15.43
2022-10-19T19:19:48.858Z,14.98
2022-10-19T19:22:18.044Z,14.97
2022-10-19T19:24:46.756Z,15.02
2022-10-19T19:27:15.000Z,14.81
2022-10-19T19:29:44.008Z,14.79
2022-10-19T19:32:12.119Z,14.57
2022-10-19T19:34:41.808Z,14.84
2022-10-19T19:37:11.237Z,14.32
2022-10-19T19:39:39.973Z,14.24
2022-10-19T19:42:08.778Z,14.21
2022-10-19T19:44:37.110Z,14.11
2022-10-19T19:47:05.907Z,14.00
2022-10-19T19:49:34.378Z,14.01
2022-10-19T19:52:03.950Z,14.38
2022-10-19T19:54:32.539Z,13.91
2022-10-19T19:57:00.674Z,13.91
2022-10-19T19:59:30.414Z,13.82
2022-10-19T20:01:58.579Z,13.83
2022-10-19T20:04:27.232Z,13.90
2022-10-19T20:06:55.321Z,13.93
2022-10-19T20:09:25.107Z,14.40
2022-10-19T20:11:53.275Z,13.99
2022-10-19T20:14:21.666Z,14.00
2022-10-19T20:16:49.783Z,13.91
2022-10-19T20:19:18.254Z,13.86
2022-10-19T20:21:46.279Z,13.81
2022-10-19T20:24:14.666Z,13.90
2022-10-19T20:26:44.120Z,14.18
2022-10-19T20:29:12.551Z,13.67
2022-10-19T20:31:41.390Z,13.64
2022-10-19T20:34:14.853Z,13.63
2022-10-19T20:36:43.183Z,13.56
2022-10-19T20:39:11.874Z,13.47
2022-10-19T20:41:39.947Z,13.17
2022-10-19T20:44:09.685Z,13.49
2022-10-19T20:46:37.862Z,13.12
2022-10-19T20:49:07.430Z,13.08
2022-10-19T20:51:37.165Z,13.30
2022-10-19T20:54:07.535Z,13.33
2022-10-19T20:56:37.054Z,13.23
2022-10-19T20:59:07.352Z,13.32
2022-10-19T21:01:38.615Z,13.42
2022-10-19T21:04:07.693Z,13.93
2022-10-19T21:06:39.582Z,13.31
2022-10-19T21:09:08.720Z,12.97
2022-10-19T21:11:38.534Z,13.02
2022-10-19T21:14:09.762Z,13.13
2022-10-19T21:16:39.669Z,13.07
2022-10-19T21:19:09.604Z,12.92
2022-10-19T21:21:41.625Z,12.97
2022-10-19T21:24:12.809Z,12.91
2022-10-19T21:26:41.122Z,12.44
2022-10-19T21:29:10.700Z,12.68
2022-10-19T21:31:47.830Z,12.78
2022-10-19T21:34:21.430Z,12.72
2022-10-19T21:36:49.747Z,12.39
2022-10-19T21:39:18.757Z,12.48
2022-10-19T21:41:47.377Z,12.32
2022-10-19T21:44:16.474Z,12.57
2022-10-19T21:46:48.227Z,12.72
2022-10-19T21:49:16.589Z,12.22
2022-10-19T21:51:45.935Z,12.47
2022-10-19T21:54:15.637Z,12.39
2022-10-19T21:56:43.893Z,12.11
2022-10-19T21:59:13.142Z,12.19
2022-10-19T22:01:41.909Z,12.17
2022-10-19T22:04:14.162Z,12.53
2022-10-19T22:06:42.710Z,12.14
2022-10-19T22:09:14.645Z,12.41
2022-10-19T22:11:42.945Z,11.93
2022-10-19T22:14:13.308Z,12.29
2022-10-19T22:16:41.961Z,12.02
2022-10-19T22:19:12.004Z,12.24
2022-10-19T22:21:40.355Z,11.83
2022-10-19T22:24:11.635Z,12.09
2022-10-19T22:26:42.024Z,12.10
2022-10-19T22:29:10.563Z,11.73
2022-10-19T22:31:39.464Z,11.92
2022-10-19T22:34:09.589Z,12.03
2022-10-19T22:36:39.310Z,12.06
2022-10-19T22:39:08.404Z,11.95
2022-10-19T22:42:31.789Z,12.46
2022-10-19T22:45:00.485Z,11.54
2022-10-19T22:47:28.662Z,11.49
2022-10-19T22:49:57.189Z,11.56
2022-10-19T22:52:26.843Z,11.87
2022-10-19T22:54:55.419Z,11.53
2022-10-19T22:57:23.804Z,11.40
2022-10-19T22:59:52.179Z,11.45
2022-10-19T23:02:20.391Z,11.47
2022-10-19T23:04:48.862Z,11.43
2022-10-19T23:07:17.075Z,11.32
2022-10-19T23:09:46.888Z,11.57
2022-10-19T23:12:15.027Z,11.32
2022-10-19T23:14:43.626Z,11.28
2022-10-19T23:17:11.911Z,11.29
2022-10-19T23:19:40.346Z,11.34
2022-10-19T23:22:08.424Z,11.25
2022-10-19T23:24:36.807Z,11.30
2022-10-19T23:27:06.386Z,11.62
2022-10-19T23:29:34.919Z,11.18
2022-10-19T23:32:03.061Z,11.10
2022-10-19T23:34:31.412Z,11.20
2022-10-19T23:36:59.649Z,11.11
2022-10-19T23:39:28.029Z,11.12
2022-10-19T23:41:56.133Z,11.01
2022-10-19T23:44:25.899Z,11.37
2022-10-19T23:46:54.274Z,11.07
2022-10-19T23:49:22.529Z,10.93
2022-10-19T23:51:50.671Z,10.85
2022-10-19T23:54:18.970Z,10.85
2022-10-19T23:56:47.019Z,10.74
2022-10-19T23:59:15.536Z,10.81
